Accueil
METAR-TAF:

METAR-TAF

Aéroports :

Altenstadt, Allemagne

latitude: 47-50N, longitude: 010-52E, altitude: 739 m

Observation

Le bulletin a été fait il y a 38 minutes, à 21:20 UTC
Vent 5 kt de sud-ouest
Température 7°C
Humidité 61%
Pression 1026 hPa

METAR: ETHA 062120Z AUTO 22005KT //// // ////// 07/00 Q1026 ///

Heure: 23:58 (21:58 UTC)

Prévision

Le bulletin a été fait il y a 8 heures et 57 minutes, à 13:01 UTC
Prévision valable du 06 à 14 UTC au 06 à 23 UTC
Vent 5 kt de nord/nord-ouest
Visibilité: 1320 m
Ciel clair

TAF: ETHA 061301Z 0614/0623 34005KT 9999 NSW SKC CANCEL 1320

Observations et prévisions météorologiques de plus de 4000 aéroports (messages METAR et TAF).

Les stations disponibles sont représentées par des disques jaunes et rouges sur la carte.

Passer la souris dessus pour voir le nom de la station.

Cliquer dessus pour voir les observations et prévisions météorologiques.

Pour changer de carte: cliquez sur les boutons verts avec une croix noire pour zoomer, sur le bouton vert avec un tiret pour effectuer un zoom arrière, ou sur les flèches vertes pour les cartes adjacentes.


METAR-TAF: